createdAt,value
2018-04-16T00:00:13.143Z,87.10
2018-04-16T00:02:40.695Z,87.20
2018-04-16T00:05:08.239Z,87.30
2018-04-16T00:07:35.778Z,87.60
2018-04-16T00:10:03.293Z,87.20
2018-04-16T00:12:30.858Z,87.40
2018-04-16T00:14:58.379Z,87.80
2018-04-16T00:17:25.934Z,88.10
2018-04-16T00:19:53.455Z,87.90
2018-04-16T00:22:21.023Z,87.90
2018-04-16T00:24:48.535Z,87.90
2018-04-16T00:27:16.083Z,87.80
2018-04-16T00:29:43.600Z,87.90
2018-04-16T00:32:16.710Z,87.80
2018-04-16T00:34:49.800Z,88.00
2018-04-16T00:37:23.083Z,87.90
2018-04-16T00:39:56.980Z,87.60
2018-04-16T00:42:30.208Z,87.70
2018-04-16T00:45:03.611Z,87.50
2018-04-16T00:47:36.837Z,87.90
2018-04-16T00:50:10.165Z,87.90
2018-04-16T00:52:43.361Z,88.10
2018-04-16T00:55:16.728Z,88.30
2018-04-16T00:57:49.950Z,87.80
2018-04-16T01:00:23.609Z,88.00
2018-04-16T01:02:56.838Z,88.30
2018-04-16T01:05:30.038Z,88.50
2018-04-16T01:08:03.247Z,88.40
2018-04-16T01:10:37.728Z,88.10
2018-04-16T01:13:10.882Z,88.10
2018-04-16T01:15:43.982Z,88.20
2018-04-16T01:18:17.101Z,88.30
2018-04-16T01:20:51.092Z,88.00
2018-04-16T01:26:37.459Z,88.30
2018-04-16T01:29:10.548Z,88.50
2018-04-16T01:31:43.624Z,88.60
2018-04-16T01:34:17.960Z,88.30
2018-04-16T01:36:51.037Z,88.30
2018-04-16T01:39:24.159Z,88.20
2018-04-16T01:41:58.019Z,88.50
2018-04-16T01:44:31.397Z,88.50
2018-04-16T01:47:04.467Z,88.40
2018-04-16T01:49:37.581Z,88.50
2018-04-16T01:52:10.658Z,88.40
2018-04-16T01:54:44.651Z,88.20
2018-04-16T01:57:17.799Z,88.60
2018-04-16T02:00:01.121Z,88.50
2018-04-16T02:02:34.157Z,88.80
2018-04-16T02:05:09.255Z,88.40
2018-04-16T02:07:42.327Z,88.30
2018-04-16T02:10:15.409Z,88.40
2018-04-16T02:12:48.541Z,88.50
2018-04-16T02:15:22.590Z,88.90
2018-04-16T02:17:56.605Z,88.90
2018-04-16T02:20:30.609Z,88.90
2018-04-16T02:23:04.579Z,89.00
2018-04-16T02:25:37.975Z,89.00
2018-04-16T02:28:11.195Z,88.90
2018-04-16T02:30:44.407Z,88.70
2018-04-16T02:33:18.236Z,89.10
2018-04-16T02:35:52.235Z,89.10
2018-04-16T02:38:25.323Z,89.10
2018-04-16T02:40:58.400Z,89.20
2018-04-16T02:43:32.366Z,88.90
2018-04-16T02:46:06.585Z,88.80
2018-04-16T02:48:39.803Z,89.20
2018-04-16T02:51:13.017Z,89.10
2018-04-16T02:53:47.015Z,89.10
2018-04-16T02:56:21.152Z,89.00
2018-04-16T02:58:54.303Z,88.90
2018-04-16T03:01:27.437Z,89.00
2018-04-16T03:04:00.599Z,88.90
2018-04-16T03:06:34.706Z,88.80
2018-04-16T03:09:07.870Z,88.90
2018-04-16T03:11:40.933Z,88.80
2018-04-16T03:14:14.066Z,88.90
2018-04-16T03:16:47.978Z,88.80
2018-04-16T03:19:21.204Z,89.00
2018-04-16T03:21:54.297Z,88.50
2018-04-16T03:24:28.197Z,89.10
2018-04-16T03:27:02.251Z,89.60
2018-04-16T03:29:35.489Z,89.10
2018-04-16T03:32:09.306Z,89.30
2018-04-16T03:34:42.401Z,89.20
2018-04-16T03:37:15.607Z,88.70
2018-04-16T03:39:48.779Z,90.10
2018-04-16T03:42:22.703Z,90.10
2018-04-16T03:44:55.783Z,90.10
2018-04-16T03:47:29.458Z,90.10
2018-04-16T03:50:02.573Z,90.10
2018-04-16T03:52:35.662Z,90.10
2018-04-16T03:55:08.938Z,90.10
2018-04-16T03:57:37.410Z,90.20
2018-04-16T04:00:04.939Z,90.20
2018-04-16T04:02:32.451Z,90.20
2018-04-16T04:04:59.983Z,90.30
2018-04-16T04:07:27.499Z,90.10
2018-04-16T04:09:55.076Z,90.10
2018-04-16T04:12:22.608Z,90.10
2018-04-16T04:14:50.909Z,90.20
2018-04-16T04:17:18.443Z,90.00
2018-04-16T04:19:45.982Z,89.90
2018-04-16T04:22:13.495Z,89.80
2018-04-16T04:24:52.897Z,90.00
2018-04-16T04:27:33.344Z,90.10
2018-04-16T04:30:12.672Z,89.90
2018-04-16T04:32:40.196Z,90.20
2018-04-16T04:35:07.739Z,90.10
2018-04-16T04:37:36.222Z,90.20
2018-04-16T04:40:03.767Z,90.20
2018-04-16T04:42:31.282Z,90.30
2018-04-16T04:44:58.818Z,90.20
2018-04-16T04:47:26.322Z,90.00
2018-04-16T04:49:53.855Z,90.10
2018-04-16T04:52:21.381Z,90.10
2018-04-16T04:54:49.681Z,90.10
2018-04-16T04:57:17.201Z,90.10
2018-04-16T04:59:44.731Z,90.00
2018-04-16T05:02:12.248Z,90.10
2018-04-16T05:04:39.788Z,90.10
2018-04-16T05:07:08.058Z,90.10
2018-04-16T05:09:35.645Z,90.00
2018-04-16T05:12:03.150Z,89.90
2018-04-16T05:14:30.705Z,90.00
2018-04-16T05:16:58.987Z,90.00
2018-04-16T05:19:26.525Z,90.00
2018-04-16T05:21:54.064Z,90.10
2018-04-16T05:24:21.602Z,90.10
2018-04-16T05:26:49.118Z,90.00
2018-04-16T05:29:16.650Z,89.80
2018-04-16T05:31:44.159Z,89.70
2018-04-16T05:34:11.674Z,89.70
2018-04-16T05:36:39.210Z,89.90
2018-04-16T05:39:07.487Z,88.60
2018-04-16T05:41:35.018Z,88.50
2018-04-16T05:44:02.570Z,88.40
2018-04-16T05:46:30.111Z,87.90
2018-04-16T05:48:57.651Z,85.80
2018-04-16T05:51:25.190Z,80.70
2018-04-16T05:53:52.711Z,76.20
2018-04-16T05:56:20.710Z,71.70
2018-04-16T05:58:49.111Z,66.50
2018-04-16T06:01:17.971Z,66.40
2018-04-16T06:03:45.618Z,66.30
2018-04-16T06:06:13.232Z,65.90
2018-04-16T06:08:40.762Z,62.90
2018-04-16T06:11:09.251Z,62.70
2018-04-16T06:13:37.550Z,60.10
2018-04-16T06:16:05.861Z,59.40
2018-04-16T06:18:33.392Z,59.20
2018-04-16T06:21:00.951Z,59.10
2018-04-16T06:23:28.503Z,59.70
2018-04-16T06:25:56.035Z,59.80
2018-04-16T06:28:23.570Z,60.50
2018-04-16T06:30:51.133Z,62.10
2018-04-16T06:33:18.679Z,61.70
2018-04-16T06:35:46.221Z,63.70
2018-04-16T06:38:13.763Z,64.10
2018-04-16T06:40:42.831Z,64.30
2018-04-16T06:43:10.347Z,63.00
2018-04-16T06:45:37.909Z,58.50
2018-04-16T06:48:05.501Z,57.00
2018-04-16T06:50:33.622Z,57.30
2018-04-16T06:53:01.138Z,58.80
2018-04-16T06:55:28.689Z,57.80
2018-04-16T06:57:56.214Z,57.30
2018-04-16T07:00:23.763Z,56.20
2018-04-16T07:02:51.322Z,55.40
2018-04-16T07:05:18.863Z,56.20
2018-04-16T07:07:47.307Z,58.00
2018-04-16T07:10:14.864Z,57.80
2018-04-16T07:12:42.381Z,58.20
2018-04-16T07:15:09.899Z,58.10
2018-04-16T07:17:37.650Z,58.00
2018-04-16T07:20:05.162Z,57.80
2018-04-16T07:22:32.707Z,57.70
2018-04-16T07:25:01.012Z,60.40
2018-04-16T07:27:28.579Z,59.60
2018-04-16T07:29:56.108Z,60.90
2018-04-16T07:32:24.403Z,64.40
2018-04-16T07:34:51.923Z,64.40
2018-04-16T07:39:53.250Z,65.10
2018-04-16T07:42:21.986Z,65.80
2018-04-16T07:44:49.502Z,66.90
2018-04-16T07:47:17.047Z,65.90
2018-04-16T07:49:44.571Z,66.90
2018-04-16T07:52:12.884Z,64.90
2018-04-16T07:54:40.403Z,64.80
2018-04-16T07:57:08.711Z,63.60
2018-04-16T07:59:37.098Z,63.80
2018-04-16T08:02:04.647Z,62.80
2018-04-16T08:04:32.163Z,64.50
2018-04-16T08:06:59.736Z,64.10
2018-04-16T08:09:27.268Z,64.00
2018-04-16T08:11:55.622Z,65.30
2018-04-16T08:14:23.143Z,65.20
2018-04-16T08:16:51.439Z,64.10
2018-04-16T08:19:19.036Z,64.50
2018-04-16T08:21:46.534Z,64.80
2018-04-16T08:24:14.062Z,64.20
2018-04-16T08:26:41.603Z,63.60
2018-04-16T08:29:09.128Z,63.00
2018-04-16T08:31:36.679Z,64.50
2018-04-16T08:34:04.215Z,63.80
2018-04-16T08:36:31.753Z,64.10
2018-04-16T08:38:59.275Z,62.80
2018-04-16T08:41:27.609Z,61.50
2018-04-16T08:43:55.133Z,61.50
2018-04-16T08:46:22.683Z,59.80
2018-04-16T08:48:50.224Z,59.40
2018-04-16T08:51:17.794Z,57.60
2018-04-16T08:53:45.320Z,59.10
2018-04-16T08:56:12.840Z,59.40
2018-04-16T08:58:40.385Z,60.80
2018-04-16T09:01:07.897Z,59.70
2018-04-16T09:03:35.431Z,60.10
2018-04-16T09:06:02.947Z,58.90
2018-04-16T09:08:30.483Z,58.60
2018-04-16T09:10:58.716Z,56.90
2018-04-16T09:13:26.250Z,58.40
2018-04-16T09:15:53.775Z,58.10
2018-04-16T09:18:21.308Z,58.20
2018-04-16T09:20:48.842Z,56.90
2018-04-16T09:23:16.372Z,55.30
2018-04-16T09:25:43.891Z,56.20
2018-04-16T09:28:11.426Z,56.30
2018-04-16T09:30:38.943Z,58.40
2018-04-16T09:33:06.526Z,58.10
2018-04-16T09:35:34.806Z,60.20
2018-04-16T09:38:02.375Z,60.20
2018-04-16T09:40:29.898Z,59.20
2018-04-16T09:42:57.778Z,59.90
2018-04-16T09:45:26.072Z,59.60
2018-04-16T09:47:53.617Z,59.50
2018-04-16T09:50:21.158Z,59.20
2018-04-16T09:52:48.698Z,58.40
2018-04-16T09:55:16.206Z,59.30
2018-04-16T09:57:43.754Z,58.90
2018-04-16T10:00:11.279Z,60.20
2018-04-16T10:02:44.406Z,57.70
2018-04-16T10:05:11.920Z,58.30
2018-04-16T10:07:39.458Z,57.50
2018-04-16T10:10:06.976Z,57.60
2018-04-16T10:12:34.507Z,56.80
2018-04-16T10:15:02.025Z,57.20
2018-04-16T10:17:29.567Z,56.70
2018-04-16T10:19:57.101Z,57.50
2018-04-16T10:22:24.663Z,55.00
2018-04-16T10:24:52.182Z,56.20
2018-04-16T10:27:19.690Z,53.70
2018-04-16T10:29:47.222Z,53.50
2018-04-16T10:32:14.734Z,54.10
2018-04-16T10:34:42.278Z,54.40
2018-04-16T10:37:09.938Z,56.70
2018-04-16T10:39:37.490Z,55.60
2018-04-16T10:42:05.010Z,56.20
2018-04-16T10:44:32.601Z,55.60
2018-04-16T10:47:00.125Z,56.00
2018-04-16T10:49:27.671Z,56.60
2018-04-16T10:51:55.187Z,54.60
2018-04-16T10:54:22.727Z,55.70
2018-04-16T10:56:50.282Z,57.20
2018-04-16T10:59:17.832Z,56.30
2018-04-16T11:01:45.388Z,55.90
2018-04-16T11:04:12.927Z,54.50
2018-04-16T11:06:40.450Z,56.40
2018-04-16T11:09:07.983Z,55.00
2018-04-16T11:11:35.497Z,54.40
2018-04-16T11:14:03.810Z,55.40
2018-04-16T11:16:31.323Z,55.40
2018-04-16T11:18:58.852Z,55.80
2018-04-16T11:21:26.368Z,55.10
2018-04-16T11:23:53.902Z,54.80
2018-04-16T11:26:21.424Z,55.00
2018-04-16T11:28:48.954Z,54.50
2018-04-16T11:31:16.479Z,53.60
2018-04-16T11:33:44.025Z,54.50
2018-04-16T11:36:11.555Z,54.20
2018-04-16T11:38:39.082Z,53.20
2018-04-16T11:41:07.370Z,54.90
2018-04-16T11:43:34.911Z,54.80
2018-04-16T11:46:02.444Z,54.00
2018-04-16T11:48:29.971Z,53.60
2018-04-16T11:50:57.486Z,54.60
2018-04-16T11:53:25.799Z,53.20
2018-04-16T11:55:53.318Z,53.10
2018-04-16T11:58:20.871Z,52.00
2018-04-16T12:00:48.400Z,50.70
2018-04-16T12:03:16.699Z,53.50
2018-04-16T12:05:44.232Z,52.80
2018-04-16T12:08:11.755Z,52.50
2018-04-16T12:10:39.289Z,51.70
2018-04-16T12:13:06.810Z,53.10
2018-04-16T12:15:34.356Z,53.70
2018-04-16T12:18:01.883Z,52.50
2018-04-16T12:20:29.428Z,53.80
2018-04-16T12:22:56.943Z,52.40
2018-04-16T12:25:24.486Z,53.40
2018-04-16T12:27:52.024Z,52.50
2018-04-16T12:30:20.342Z,52.80
2018-04-16T12:32:47.867Z,52.80
2018-04-16T12:35:15.415Z,53.70
2018-04-16T12:37:42.953Z,53.00
2018-04-16T12:40:10.501Z,52.60
2018-04-16T12:42:38.019Z,53.50
2018-04-16T12:45:05.564Z,52.40
2018-04-16T12:47:33.847Z,53.70
2018-04-16T12:50:01.394Z,53.70
2018-04-16T12:52:28.924Z,54.30
2018-04-16T12:54:56.462Z,52.40
2018-04-16T12:57:23.983Z,53.70
2018-04-16T12:59:52.288Z,53.60
2018-04-16T13:02:19.826Z,53.60
2018-04-16T13:04:48.194Z,54.00
2018-04-16T13:07:15.723Z,53.90
2018-04-16T13:09:43.269Z,54.30
2018-04-16T13:12:10.775Z,52.10
2018-04-16T13:14:38.357Z,50.80
2018-04-16T13:17:05.876Z,50.80
2018-04-16T13:19:33.414Z,51.10
2018-04-16T13:22:00.929Z,49.50
2018-04-16T13:24:28.515Z,51.70
2018-04-16T13:26:56.032Z,50.60
2018-04-16T13:29:23.572Z,48.80
2018-04-16T13:31:51.114Z,49.80
2018-04-16T13:34:18.675Z,50.80
2018-04-16T13:36:46.182Z,52.30
2018-04-16T13:39:13.726Z,52.30
2018-04-16T13:41:41.237Z,51.90
2018-04-16T13:44:08.734Z,52.40
2018-04-16T13:46:36.270Z,51.00
2018-04-16T13:49:03.785Z,50.80
2018-04-16T13:51:31.329Z,52.50
2018-04-16T13:53:58.855Z,50.60
2018-04-16T13:56:26.388Z,50.40
2018-04-16T13:58:53.900Z,49.70
2018-04-16T14:01:21.427Z,51.00
2018-04-16T14:03:48.983Z,48.80
2018-04-16T14:06:16.515Z,48.90
2018-04-16T14:08:44.131Z,49.40
2018-04-16T14:11:11.670Z,50.40
2018-04-16T14:13:39.184Z,50.30
2018-04-16T14:16:07.475Z,50.90
2018-04-16T14:18:35.002Z,50.80
2018-04-16T14:21:02.558Z,50.40
2018-04-16T14:23:30.070Z,50.00
2018-04-16T14:25:57.599Z,49.70
2018-04-16T14:28:25.117Z,49.90
2018-04-16T14:30:52.667Z,50.90
2018-04-16T14:33:20.174Z,50.30
2018-04-16T14:35:47.719Z,49.70
2018-04-16T14:38:15.242Z,49.50
2018-04-16T14:40:42.783Z,49.50
2018-04-16T14:43:10.300Z,48.90
2018-04-16T14:45:37.843Z,49.70
2018-04-16T14:48:05.359Z,50.70
2018-04-16T14:50:32.900Z,49.60
2018-04-16T14:53:00.430Z,47.90
2018-04-16T14:55:28.210Z,49.20
2018-04-16T14:57:55.722Z,47.90
2018-04-16T15:00:23.266Z,47.70
2018-04-16T15:02:50.785Z,48.10
2018-04-16T15:05:18.322Z,48.20
2018-04-16T15:07:45.840Z,47.80
2018-04-16T15:10:13.374Z,47.80
2018-04-16T15:12:41.655Z,47.70
2018-04-16T15:15:09.207Z,47.80
2018-04-16T15:17:36.720Z,47.30
2018-04-16T15:20:04.231Z,47.20
2018-04-16T15:22:31.770Z,48.00
2018-04-16T15:24:59.284Z,49.20
2018-04-16T15:27:26.815Z,48.70
2018-04-16T15:29:54.327Z,48.80
2018-04-16T15:32:21.860Z,48.10
2018-04-16T15:34:49.388Z,48.90
2018-04-16T15:37:17.693Z,49.60
2018-04-16T15:39:45.222Z,49.60
2018-04-16T15:42:12.759Z,49.70
2018-04-16T15:44:40.315Z,49.60
2018-04-16T15:47:07.841Z,48.70
2018-04-16T15:49:35.371Z,48.70
2018-04-16T15:52:02.910Z,48.50
2018-04-16T15:54:30.431Z,48.70
2018-04-16T15:56:57.967Z,49.20
2018-04-16T15:59:25.503Z,49.30
2018-04-16T16:01:53.806Z,49.30
2018-04-16T16:04:21.380Z,48.90
2018-04-16T16:06:48.883Z,49.20
2018-04-16T16:09:16.392Z,48.80
2018-04-16T16:11:43.916Z,48.00
2018-04-16T16:14:11.428Z,48.20
2018-04-16T16:16:39.000Z,49.30
2018-04-16T16:19:06.526Z,49.60
2018-04-16T16:21:34.055Z,48.10
2018-04-16T16:24:01.560Z,47.90
2018-04-16T16:26:29.095Z,47.60
2018-04-16T16:28:57.366Z,49.00
2018-04-16T16:31:24.890Z,48.90
2018-04-16T16:33:52.401Z,49.20
2018-04-16T16:36:19.924Z,49.60
2018-04-16T16:38:47.439Z,49.40
2018-04-16T16:41:14.972Z,49.20
2018-04-16T16:43:42.484Z,48.50
2018-04-16T16:46:10.807Z,49.20
2018-04-16T16:48:39.086Z,49.20
2018-04-16T16:51:06.658Z,49.10
2018-04-16T16:53:34.167Z,48.80
2018-04-16T16:56:01.683Z,48.70
2018-04-16T16:58:29.214Z,48.80
2018-04-16T17:00:56.768Z,48.60
2018-04-16T17:03:24.299Z,48.40
2018-04-16T17:05:51.810Z,48.20
2018-04-16T17:08:19.334Z,47.50
2018-04-16T17:10:46.886Z,48.10
2018-04-16T17:13:14.413Z,47.40
2018-04-16T17:15:41.924Z,48.10
2018-04-16T17:18:09.451Z,48.60
2018-04-16T17:20:37.009Z,48.40
2018-04-16T17:23:04.544Z,50.10
2018-04-16T17:25:32.060Z,49.80
2018-04-16T17:27:59.595Z,49.40
2018-04-16T17:30:27.125Z,49.40
2018-04-16T17:32:54.656Z,50.20
2018-04-16T17:35:22.168Z,50.60
2018-04-16T17:37:50.472Z,51.00
2018-04-16T17:40:17.984Z,50.90
2018-04-16T17:42:45.512Z,50.00
2018-04-16T17:45:13.019Z,50.90
2018-04-16T17:47:40.572Z,51.60
2018-04-16T17:50:08.115Z,50.50
2018-04-16T17:52:35.642Z,51.50
2018-04-16T17:55:03.171Z,51.30
2018-04-16T17:57:30.698Z,51.90
2018-04-16T17:59:58.203Z,53.20
2018-04-16T18:02:25.747Z,53.70
2018-04-16T18:04:53.263Z,53.10
2018-04-16T18:07:20.791Z,53.50
2018-04-16T18:09:48.316Z,55.60
2018-04-16T18:12:15.868Z,53.90
2018-04-16T18:14:43.398Z,55.00
2018-04-16T18:17:11.708Z,56.80
2018-04-16T18:19:39.219Z,56.80
2018-04-16T18:22:06.778Z,58.50
2018-04-16T18:24:34.422Z,62.60
2018-04-16T18:27:02.782Z,59.40
2018-04-16T18:29:30.254Z,59.30
2018-04-16T18:31:57.772Z,59.60
2018-04-16T18:34:25.303Z,60.50
2018-04-16T18:36:53.585Z,64.80
2018-04-16T18:39:21.885Z,64.90
2018-04-16T18:41:49.401Z,64.80
2018-04-16T18:44:16.951Z,64.30
2018-04-16T18:46:44.462Z,62.90
2018-04-16T18:49:11.996Z,64.20
2018-04-16T18:51:39.521Z,66.80
2018-04-16T18:54:07.070Z,65.70
2018-04-16T18:56:34.576Z,64.00
2018-04-16T18:59:02.103Z,65.00
2018-04-16T19:01:29.604Z,64.10
2018-04-16T19:03:57.136Z,65.20
2018-04-16T19:06:24.646Z,63.30
2018-04-16T19:08:52.195Z,64.70
2018-04-16T19:11:19.706Z,67.10
2018-04-16T19:13:47.270Z,66.20
2018-04-16T19:16:14.786Z,65.70
2018-04-16T19:18:42.322Z,66.80
2018-04-16T19:21:15.384Z,65.00
2018-04-16T19:23:42.941Z,66.70
2018-04-16T19:26:10.470Z,66.70
2018-04-16T19:28:38.027Z,67.20
2018-04-16T19:31:05.537Z,68.20
2018-04-16T19:33:38.635Z,67.90
2018-04-16T19:36:06.157Z,69.10
2018-04-16T19:38:33.686Z,68.50
2018-04-16T19:41:01.206Z,69.60
2018-04-16T19:43:28.757Z,67.40
2018-04-16T19:45:56.268Z,70.50
2018-04-16T19:48:23.821Z,70.20
2018-04-16T19:50:51.344Z,68.30
2018-04-16T19:53:18.883Z,68.30
2018-04-16T19:55:52.104Z,68.40
2018-04-16T19:58:21.600Z,67.60
2018-04-16T20:00:49.106Z,69.80
2018-04-16T20:03:22.173Z,70.40
2018-04-16T20:05:51.203Z,69.40
2018-04-16T20:08:19.851Z,69.50
2018-04-16T20:10:47.398Z,69.30
2018-04-16T20:13:14.969Z,70.00
2018-04-16T20:15:42.515Z,70.50
2018-04-16T20:18:10.130Z,68.40
2018-04-16T20:20:38.375Z,70.50
2018-04-16T20:23:05.920Z,70.80
2018-04-16T20:25:33.443Z,69.00
2018-04-16T20:28:00.949Z,70.90
2018-04-16T20:30:29.255Z,71.10
2018-04-16T20:32:56.767Z,71.10
2018-04-16T20:35:25.104Z,71.40
2018-04-16T20:37:52.623Z,71.90
2018-04-16T20:40:20.191Z,71.00
2018-04-16T20:42:47.719Z,71.70
2018-04-16T20:45:15.255Z,72.30
2018-04-16T20:47:42.766Z,72.60
2018-04-16T20:50:11.092Z,72.30
2018-04-16T20:52:38.607Z,72.20
2018-04-16T20:55:07.021Z,71.70
2018-04-16T20:57:34.527Z,71.60
2018-04-16T21:00:02.404Z,73.10
2018-04-16T21:02:29.955Z,73.00
2018-04-16T21:04:57.499Z,73.70
2018-04-16T21:07:25.047Z,73.10
2018-04-16T21:09:52.583Z,73.00
2018-04-16T21:12:20.093Z,72.60
2018-04-16T21:14:48.416Z,72.50
2018-04-16T21:17:15.935Z,73.00
2018-04-16T21:19:43.471Z,74.00
2018-04-16T21:22:11.003Z,74.40
2018-04-16T21:24:38.536Z,74.20
2018-04-16T21:27:06.057Z,74.90
2018-04-16T21:29:33.612Z,74.60
2018-04-16T21:32:02.032Z,75.00
2018-04-16T21:34:30.710Z,74.70
2018-04-16T21:36:58.227Z,74.70
2018-04-16T21:39:25.767Z,75.20
2018-04-16T21:41:53.282Z,75.30
2018-04-16T21:44:20.826Z,75.00
2018-04-16T21:46:48.694Z,75.20
2018-04-16T21:49:16.944Z,75.40
2018-04-16T21:51:44.518Z,75.10
2018-04-16T21:54:12.047Z,75.50
2018-04-16T21:56:39.593Z,75.80
2018-04-16T21:59:07.123Z,76.40
2018-04-16T22:01:34.659Z,76.40
2018-04-16T22:04:02.192Z,76.50
2018-04-16T22:06:29.738Z,77.30
2018-04-16T22:08:57.683Z,77.40
2018-04-16T22:11:25.217Z,77.50
2018-04-16T22:13:52.980Z,76.90
2018-04-16T22:16:21.121Z,77.40
2018-04-16T22:18:48.632Z,77.50
2018-04-16T22:21:18.134Z,77.50
2018-04-16T22:23:45.656Z,77.20
2018-04-16T22:26:13.190Z,77.20
2018-04-16T22:28:40.805Z,77.50
2018-04-16T22:31:08.359Z,77.50
2018-04-16T22:33:36.148Z,77.50
2018-04-16T22:36:03.919Z,77.70
2018-04-16T22:38:31.427Z,77.10
2018-04-16T22:40:58.984Z,77.90
2018-04-16T22:43:26.495Z,78.00
2018-04-16T22:45:54.047Z,77.20
2018-04-16T22:48:21.871Z,78.60
2018-04-16T22:50:49.415Z,77.70
2018-04-16T22:53:17.301Z,78.40
2018-04-16T22:55:44.845Z,78.50
2018-04-16T22:58:12.728Z,79.30
2018-04-16T23:00:41.283Z,80.00
2018-04-16T23:03:09.854Z,80.30
2018-04-16T23:05:37.390Z,80.20
2018-04-16T23:08:04.890Z,80.00
2018-04-16T23:10:33.195Z,80.10
2018-04-16T23:13:00.710Z,80.00
2018-04-16T23:15:28.245Z,80.60
2018-04-16T23:17:55.978Z,80.90
2018-04-16T23:20:23.515Z,81.10
2018-04-16T23:22:51.794Z,80.70
2018-04-16T23:25:20.131Z,80.60
2018-04-16T23:27:47.639Z,80.90
2018-04-16T23:30:15.324Z,81.10
2018-04-16T23:32:42.855Z,81.30
2018-04-16T23:35:11.770Z,81.10
2018-04-16T23:37:39.302Z,81.10
2018-04-16T23:40:07.604Z,81.70
2018-04-16T23:42:35.131Z,81.70
2018-04-16T23:45:02.660Z,81.10
2018-04-16T23:47:30.193Z,81.10
2018-04-16T23:49:57.706Z,81.20
2018-04-16T23:52:26.380Z,81.70
2018-04-16T23:54:53.894Z,81.60
2018-04-16T23:57:21.431Z,81.80
2018-04-16T23:59:49.708Z,82.30
